sensor_id;sensor_type;location;lat;lon;timestamp;temperature;humidity
43647;DHT22;56152;49.996;18.980;2022-09-03T00:03:09;11.20;75.90
43647;DHT22;56152;49.996;18.980;2022-09-03T00:08:29;11.20;75.20
43647;DHT22;56152;49.996;18.980;2022-09-03T00:13:36;11.10;75.40
43647;DHT22;56152;49.996;18.980;2022-09-03T00:18:44;11.00;75.50
43647;DHT22;56152;49.996;18.980;2022-09-03T00:23:50;11.00;75.70
43647;DHT22;56152;49.996;18.980;2022-09-03T00:29:00;10.80;75.90
43647;DHT22;56152;49.996;18.980;2022-09-03T00:34:09;10.70;76.30
43647;DHT22;56152;49.996;18.980;2022-09-03T00:39:16;10.60;76.60
43647;DHT22;56152;49.996;18.980;2022-09-03T00:44:58;10.60;76.70
43647;DHT22;56152;49.996;18.980;2022-09-03T00:50:20;10.50;76.80
43647;DHT22;56152;49.996;18.980;2022-09-03T00:55:39;10.50;77.00
43647;DHT22;56152;49.996;18.980;2022-09-03T01:00:44;10.40;77.10
43647;DHT22;56152;49.996;18.980;2022-09-03T01:06:12;10.30;77.10
43647;DHT22;56152;49.996;18.980;2022-09-03T01:11:26;10.30;77.40
43647;DHT22;56152;49.996;18.980;2022-09-03T01:16:36;10.20;77.60
43647;DHT22;56152;49.996;18.980;2022-09-03T01:22:03;10.20;77.80
43647;DHT22;56152;49.996;18.980;2022-09-03T01:27:31;10.30;77.80
43647;DHT22;56152;49.996;18.980;2022-09-03T01:32:47;10.30;77.70
43647;DHT22;56152;49.996;18.980;2022-09-03T01:38:15;10.30;77.60
43647;DHT22;56152;49.996;18.980;2022-09-03T01:43:43;10.20;77.70
43647;DHT22;56152;49.996;18.980;2022-09-03T01:48:59;10.10;77.90
43647;DHT22;56152;49.996;18.980;2022-09-03T01:54:48;10.00;78.20
43647;DHT22;56152;49.996;18.980;2022-09-03T01:59:55;10.00;78.50
43647;DHT22;56152;49.996;18.980;2022-09-03T02:05:03;10.00;78.50
43647;DHT22;56152;49.996;18.980;2022-09-03T02:10:11;10.00;78.70
43647;DHT22;56152;49.996;18.980;2022-09-03T02:15:31;9.90;78.60
43647;DHT22;56152;49.996;18.980;2022-09-03T02:20:37;9.90;78.80
43647;DHT22;56152;49.996;18.980;2022-09-03T02:25:42;9.90;78.90
43647;DHT22;56152;49.996;18.980;2022-09-03T02:30:48;9.80;79.10
43647;DHT22;56152;49.996;18.980;2022-09-03T02:36:03;9.70;79.20
43647;DHT22;56152;49.996;18.980;2022-09-03T02:41:05;9.60;79.50
43647;DHT22;56152;49.996;18.980;2022-09-03T02:46:13;9.50;79.90
43647;DHT22;56152;49.996;18.980;2022-09-03T02:51:18;9.40;80.20
43647;DHT22;56152;49.996;18.980;2022-09-03T02:56:23;9.50;80.30
43647;DHT22;56152;49.996;18.980;2022-09-03T03:01:27;9.50;80.20
43647;DHT22;56152;49.996;18.980;2022-09-03T03:06:30;9.50;80.20
43647;DHT22;56152;49.996;18.980;2022-09-03T03:11:39;9.40;80.30
43647;DHT22;56152;49.996;18.980;2022-09-03T03:16:41;9.30;80.50
43647;DHT22;56152;49.996;18.980;2022-09-03T03:21:54;9.20;80.70
43647;DHT22;56152;49.996;18.980;2022-09-03T03:26:56;9.20;81.50
43647;DHT22;56152;49.996;18.980;2022-09-03T03:31:58;9.10;81.00
43647;DHT22;56152;49.996;18.980;2022-09-03T03:37:08;9.10;81.20
43647;DHT22;56152;49.996;18.980;2022-09-03T03:42:14;9.10;81.40
43647;DHT22;56152;49.996;18.980;2022-09-03T03:47:20;9.00;81.60
43647;DHT22;56152;49.996;18.980;2022-09-03T03:52:26;8.90;81.60
43647;DHT22;56152;49.996;18.980;2022-09-03T03:57:29;8.80;81.90
43647;DHT22;56152;49.996;18.980;2022-09-03T04:02:38;8.80;82.20
43647;DHT22;56152;49.996;18.980;2022-09-03T04:07:44;8.70;82.30
43647;DHT22;56152;49.996;18.980;2022-09-03T04:12:56;8.70;82.30
43647;DHT22;56152;49.996;18.980;2022-09-03T04:17:58;8.70;82.50
43647;DHT22;56152;49.996;18.980;2022-09-03T04:23:04;8.70;82.40
43647;DHT22;56152;49.996;18.980;2022-09-03T04:28:08;8.70;82.70
43647;DHT22;56152;49.996;18.980;2022-09-03T04:33:10;8.70;83.00
43647;DHT22;56152;49.996;18.980;2022-09-03T04:38:33;8.80;83.00
43647;DHT22;56152;49.996;18.980;2022-09-03T04:43:36;9.00;83.00
43647;DHT22;56152;49.996;18.980;2022-09-03T04:48:38;9.10;82.80
43647;DHT22;56152;49.996;18.980;2022-09-03T04:53:54;9.20;82.80
43647;DHT22;56152;49.996;18.980;2022-09-03T04:59:02;9.40;83.50
43647;DHT22;56152;49.996;18.980;2022-09-03T05:04:05;9.50;82.60
43647;DHT22;56152;49.996;18.980;2022-09-03T05:09:11;9.70;82.50
43647;DHT22;56152;49.996;18.980;2022-09-03T05:14:13;9.90;82.30
43647;DHT22;56152;49.996;18.980;2022-09-03T05:19:16;10.10;82.20
43647;DHT22;56152;49.996;18.980;2022-09-03T05:24:20;10.30;82.00
43647;DHT22;56152;49.996;18.980;2022-09-03T05:29:22;10.50;81.80
43647;DHT22;56152;49.996;18.980;2022-09-03T05:34:25;11.00;81.30
43647;DHT22;56152;49.996;18.980;2022-09-03T05:39:37;11.50;80.80
43647;DHT22;56152;49.996;18.980;2022-09-03T05:44:39;12.20;80.00
43647;DHT22;56152;49.996;18.980;2022-09-03T05:49:41;12.70;78.40
43647;DHT22;56152;49.996;18.980;2022-09-03T05:54:46;13.30;77.30
43647;DHT22;56152;49.996;18.980;2022-09-03T05:59:48;13.90;76.10
43647;DHT22;56152;49.996;18.980;2022-09-03T06:04:52;14.30;75.30
43647;DHT22;56152;49.996;18.980;2022-09-03T06:09:57;14.70;74.80
43647;DHT22;56152;49.996;18.980;2022-09-03T06:14:59;15.20;74.20
43647;DHT22;56152;49.996;18.980;2022-09-03T06:20:02;15.50;73.30
43647;DHT22;56152;49.996;18.980;2022-09-03T06:25:06;15.70;73.00
43647;DHT22;56152;49.996;18.980;2022-09-03T06:30:10;15.80;72.60
43647;DHT22;56152;49.996;18.980;2022-09-03T06:35:14;16.10;72.80
43647;DHT22;56152;49.996;18.980;2022-09-03T06:40:17;16.60;71.90
43647;DHT22;56152;49.996;18.980;2022-09-03T06:45:22;16.90;70.90
43647;DHT22;56152;49.996;18.980;2022-09-03T06:50:40;17.10;70.60
43647;DHT22;56152;49.996;18.980;2022-09-03T06:55:51;17.40;70.30
43647;DHT22;56152;49.996;18.980;2022-09-03T07:01:00;17.50;69.70
43647;DHT22;56152;49.996;18.980;2022-09-03T07:06:04;17.30;70.00
43647;DHT22;56152;49.996;18.980;2022-09-03T07:11:09;16.80;70.90
43647;DHT22;56152;49.996;18.980;2022-09-03T07:16:13;16.40;71.90
43647;DHT22;56152;49.996;18.980;2022-09-03T07:21:17;15.90;73.10
43647;DHT22;56152;49.996;18.980;2022-09-03T07:26:23;15.60;74.20
43647;DHT22;56152;49.996;18.980;2022-09-03T07:31:27;15.50;74.70
43647;DHT22;56152;49.996;18.980;2022-09-03T07:36:37;15.40;74.90
43647;DHT22;56152;49.996;18.980;2022-09-03T07:41:44;15.10;75.50
43647;DHT22;56152;49.996;18.980;2022-09-03T07:46:46;15.00;75.90
43647;DHT22;56152;49.996;18.980;2022-09-03T07:51:51;14.90;76.20
43647;DHT22;56152;49.996;18.980;2022-09-03T07:56:59;15.00;76.90
43647;DHT22;56152;49.996;18.980;2022-09-03T08:02:03;15.10;76.30
43647;DHT22;56152;49.996;18.980;2022-09-03T08:07:06;15.40;76.10
43647;DHT22;56152;49.996;18.980;2022-09-03T08:12:10;15.70;75.80
43647;DHT22;56152;49.996;18.980;2022-09-03T08:17:12;15.90;75.10
43647;DHT22;56152;49.996;18.980;2022-09-03T08:22:14;15.90;75.10
43647;DHT22;56152;49.996;18.980;2022-09-03T08:27:18;16.00;75.10
43647;DHT22;56152;49.996;18.980;2022-09-03T08:32:24;16.10;75.10
43647;DHT22;56152;49.996;18.980;2022-09-03T08:37:26;16.50;74.70
43647;DHT22;56152;49.996;18.980;2022-09-03T08:42:43;16.90;73.70
43647;DHT22;56152;49.996;18.980;2022-09-03T08:47:58;17.10;73.30
43647;DHT22;56152;49.996;18.980;2022-09-03T08:53:08;17.20;72.90
43647;DHT22;56152;49.996;18.980;2022-09-03T08:58:17;17.40;72.50
43647;DHT22;56152;49.996;18.980;2022-09-03T09:03:37;17.50;72.30
43647;DHT22;56152;49.996;18.980;2022-09-03T09:08:50;17.60;71.90
43647;DHT22;56152;49.996;18.980;2022-09-03T09:13:59;17.60;71.60
43647;DHT22;56152;49.996;18.980;2022-09-03T09:19:12;17.50;71.70
43647;DHT22;56152;49.996;18.980;2022-09-03T09:24:23;17.50;71.70
43647;DHT22;56152;49.996;18.980;2022-09-03T09:29:31;17.20;72.00
43647;DHT22;56152;49.996;18.980;2022-09-03T09:34:34;16.90;72.70
43647;DHT22;56152;49.996;18.980;2022-09-03T09:39:36;16.80;73.00
43647;DHT22;56152;49.996;18.980;2022-09-03T09:44:42;16.80;73.20
43647;DHT22;56152;49.996;18.980;2022-09-03T09:49:52;16.80;73.30
43647;DHT22;56152;49.996;18.980;2022-09-03T09:55:09;16.90;72.90
43647;DHT22;56152;49.996;18.980;2022-09-03T10:00:19;16.90;73.00
43647;DHT22;56152;49.996;18.980;2022-09-03T10:05:26;17.00;73.00
43647;DHT22;56152;49.996;18.980;2022-09-03T10:10:33;17.40;72.90
43647;DHT22;56152;49.996;18.980;2022-09-03T10:15:45;17.80;71.50
43647;DHT22;56152;49.996;18.980;2022-09-03T10:20:53;18.60;70.50
43647;DHT22;56152;49.996;18.980;2022-09-03T10:26:09;18.80;69.20
43647;DHT22;56152;49.996;18.980;2022-09-03T10:36:55;18.90;69.10
43647;DHT22;56152;49.996;18.980;2022-09-03T10:42:17;19.10;68.30
43647;DHT22;56152;49.996;18.980;2022-09-03T10:47:42;19.00;68.60
43647;DHT22;56152;49.996;18.980;2022-09-03T10:53:04;19.00;68.30
43647;DHT22;56152;49.996;18.980;2022-09-03T10:58:23;19.10;68.50
43647;DHT22;56152;49.996;18.980;2022-09-03T11:03:42;19.10;68.10
43647;DHT22;56152;49.996;18.980;2022-09-03T11:08:50;19.00;67.90
43647;DHT22;56152;49.996;18.980;2022-09-03T11:13:58;19.00;68.40
43647;DHT22;56152;49.996;18.980;2022-09-03T11:19:06;19.10;69.00
43647;DHT22;56152;49.996;18.980;2022-09-03T11:24:14;19.40;67.30
43647;DHT22;56152;49.996;18.980;2022-09-03T11:29:23;19.70;67.20
43647;DHT22;56152;49.996;18.980;2022-09-03T11:34:53;19.80;66.80
43647;DHT22;56152;49.996;18.980;2022-09-03T11:39:58;19.50;66.80
43647;DHT22;56152;49.996;18.980;2022-09-03T11:45:33;19.30;67.30
43647;DHT22;56152;49.996;18.980;2022-09-03T12:02:23;19.40;67.50
43647;DHT22;56152;49.996;18.980;2022-09-03T12:08:01;19.70;67.00
43647;DHT22;56152;49.996;18.980;2022-09-03T12:13:17;19.70;66.80
43647;DHT22;56152;49.996;18.980;2022-09-03T12:18:28;19.50;66.60
43647;DHT22;56152;49.996;18.980;2022-09-03T12:23:33;19.40;67.20
43647;DHT22;56152;49.996;18.980;2022-09-03T12:28:39;19.50;67.30
43647;DHT22;56152;49.996;18.980;2022-09-03T12:33:50;19.50;66.90
43647;DHT22;56152;49.996;18.980;2022-09-03T12:39:07;19.50;67.10
43647;DHT22;56152;49.996;18.980;2022-09-03T12:44:10;19.40;67.30
43647;DHT22;56152;49.996;18.980;2022-09-03T12:49:23;19.40;67.60
43647;DHT22;56152;49.996;18.980;2022-09-03T12:54:27;19.40;68.00
43647;DHT22;56152;49.996;18.980;2022-09-03T12:59:34;19.50;67.80
43647;DHT22;56152;49.996;18.980;2022-09-03T13:05:09;19.50;67.60
43647;DHT22;56152;49.996;18.980;2022-09-03T13:10:30;19.50;67.90
43647;DHT22;56152;49.996;18.980;2022-09-03T13:15:38;19.60;67.70
43647;DHT22;56152;49.996;18.980;2022-09-03T13:37:36;19.60;66.60
43647;DHT22;56152;49.996;18.980;2022-09-03T13:42:49;19.60;67.50
43647;DHT22;56152;49.996;18.980;2022-09-03T13:48:12;19.60;67.60
43647;DHT22;56152;49.996;18.980;2022-09-03T13:54:12;19.50;67.60
43647;DHT22;56152;49.996;18.980;2022-09-03T13:59:30;19.60;67.60
43647;DHT22;56152;49.996;18.980;2022-09-03T14:04:50;19.60;67.60
43647;DHT22;56152;49.996;18.980;2022-09-03T14:16:23;19.70;67.40
43647;DHT22;56152;49.996;18.980;2022-09-03T14:21:50;19.80;67.10
43647;DHT22;56152;49.996;18.980;2022-09-03T14:27:10;19.70;67.30
43647;DHT22;56152;49.996;18.980;2022-09-03T14:38:07;19.40;67.30
43647;DHT22;56152;49.996;18.980;2022-09-03T14:49:14;19.20;68.00
43647;DHT22;56152;49.996;18.980;2022-09-03T14:54:35;19.10;68.40
43647;DHT22;56152;49.996;18.980;2022-09-03T14:59:56;18.90;68.70
43647;DHT22;56152;49.996;18.980;2022-09-03T15:05:10;18.80;69.10
43647;DHT22;56152;49.996;18.980;2022-09-03T15:10:26;18.60;69.60
43647;DHT22;56152;49.996;18.980;2022-09-03T15:16:07;18.60;70.00
43647;DHT22;56152;49.996;18.980;2022-09-03T15:21:27;18.50;69.90
43647;DHT22;56152;49.996;18.980;2022-09-03T15:26:50;18.50;69.70
43647;DHT22;56152;49.996;18.980;2022-09-03T15:32:01;18.60;70.00
43647;DHT22;56152;49.996;18.980;2022-09-03T15:37:22;18.60;70.00
43647;DHT22;56152;49.996;18.980;2022-09-03T15:57:57;18.80;69.40
43647;DHT22;56152;49.996;18.980;2022-09-03T16:03:09;18.90;69.40
43647;DHT22;56152;49.996;18.980;2022-09-03T16:08:22;18.80;69.30
43647;DHT22;56152;49.996;18.980;2022-09-03T16:13:48;18.80;69.60
43647;DHT22;56152;49.996;18.980;2022-09-03T16:18:58;18.70;69.70
43647;DHT22;56152;49.996;18.980;2022-09-03T16:24:11;18.60;70.00
43647;DHT22;56152;49.996;18.980;2022-09-03T16:29:16;18.50;70.00
43647;DHT22;56152;49.996;18.980;2022-09-03T16:34:28;18.40;70.20
43647;DHT22;56152;49.996;18.980;2022-09-03T16:39:49;18.20;71.40
43647;DHT22;56152;49.996;18.980;2022-09-03T16:45:11;18.10;71.10
43647;DHT22;56152;49.996;18.980;2022-09-03T16:50:25;17.90;71.40
43647;DHT22;56152;49.996;18.980;2022-09-03T16:55:47;17.70;72.00
43647;DHT22;56152;49.996;18.980;2022-09-03T17:01:05;17.60;72.40
43647;DHT22;56152;49.996;18.980;2022-09-03T17:11:54;17.30;73.00
43647;DHT22;56152;49.996;18.980;2022-09-03T17:17:05;17.10;74.00
43647;DHT22;56152;49.996;18.980;2022-09-03T17:22:24;17.00;73.90
43647;DHT22;56152;49.996;18.980;2022-09-03T17:27:51;16.80;74.40
43647;DHT22;56152;49.996;18.980;2022-09-03T17:33:15;16.70;74.80
43647;DHT22;56152;49.996;18.980;2022-09-03T17:38:50;16.50;75.10
43647;DHT22;56152;49.996;18.980;2022-09-03T17:44:02;16.40;75.50
43647;DHT22;56152;49.996;18.980;2022-09-03T17:49:16;16.30;75.80
43647;DHT22;56152;49.996;18.980;2022-09-03T17:54:33;16.20;76.70
43647;DHT22;56152;49.996;18.980;2022-09-03T17:59:43;16.10;76.40
43647;DHT22;56152;49.996;18.980;2022-09-03T18:04:52;16.00;76.90
43647;DHT22;56152;49.996;18.980;2022-09-03T18:10:03;15.90;77.30
43647;DHT22;56152;49.996;18.980;2022-09-03T18:15:20;15.80;77.70
43647;DHT22;56152;49.996;18.980;2022-09-03T18:20:43;15.70;77.90
43647;DHT22;56152;49.996;18.980;2022-09-03T18:26:07;15.70;78.30
43647;DHT22;56152;49.996;18.980;2022-09-03T18:31:29;15.60;78.30
43647;DHT22;56152;49.996;18.980;2022-09-03T18:36:56;15.50;78.50
43647;DHT22;56152;49.996;18.980;2022-09-03T18:42:21;15.50;78.90
43647;DHT22;56152;49.996;18.980;2022-09-03T18:47:52;15.40;79.20
43647;DHT22;56152;49.996;18.980;2022-09-03T18:53:26;15.30;79.40
43647;DHT22;56152;49.996;18.980;2022-09-03T18:59:01;15.30;79.70
43647;DHT22;56152;49.996;18.980;2022-09-03T19:04:33;15.20;79.90
43647;DHT22;56152;49.996;18.980;2022-09-03T19:10:03;15.20;80.10
43647;DHT22;56152;49.996;18.980;2022-09-03T19:15:28;15.10;80.20
43647;DHT22;56152;49.996;18.980;2022-09-03T19:20:57;15.00;80.40
43647;DHT22;56152;49.996;18.980;2022-09-03T19:26:33;15.00;80.70
43647;DHT22;56152;49.996;18.980;2022-09-03T19:31:59;15.00;80.90
43647;DHT22;56152;49.996;18.980;2022-09-03T19:37:26;14.90;81.10
43647;DHT22;56152;49.996;18.980;2022-09-03T19:43:06;14.90;81.50
43647;DHT22;56152;49.996;18.980;2022-09-03T19:48:38;14.80;81.90
43647;DHT22;56152;49.996;18.980;2022-09-03T19:54:03;14.70;82.00
43647;DHT22;56152;49.996;18.980;2022-09-03T19:59:32;14.70;82.20
43647;DHT22;56152;49.996;18.980;2022-09-03T20:04:57;14.60;82.60
43647;DHT22;56152;49.996;18.980;2022-09-03T20:10:40;14.60;82.90
43647;DHT22;56152;49.996;18.980;2022-09-03T20:15:49;14.50;83.10
43647;DHT22;56152;49.996;18.980;2022-09-03T20:21:11;14.40;83.20
43647;DHT22;56152;49.996;18.980;2022-09-03T20:26:19;14.40;83.50
43647;DHT22;56152;49.996;18.980;2022-09-03T20:31:35;14.30;84.70
43647;DHT22;56152;49.996;18.980;2022-09-03T20:36:53;14.30;83.60
43647;DHT22;56152;49.996;18.980;2022-09-03T20:42:08;14.20;83.80
43647;DHT22;56152;49.996;18.980;2022-09-03T20:58:16;14.00;84.50
43647;DHT22;56152;49.996;18.980;2022-09-03T21:03:26;14.00;84.90
43647;DHT22;56152;49.996;18.980;2022-09-03T21:08:49;13.90;85.20
43647;DHT22;56152;49.996;18.980;2022-09-03T21:13:56;13.90;85.50
43647;DHT22;56152;49.996;18.980;2022-09-03T21:19:08;13.80;85.60
43647;DHT22;56152;49.996;18.980;2022-09-03T21:24:15;13.80;85.70
43647;DHT22;56152;49.996;18.980;2022-09-03T21:29:24;13.70;86.00
43647;DHT22;56152;49.996;18.980;2022-09-03T21:34:38;13.60;86.20
43647;DHT22;56152;49.996;18.980;2022-09-03T21:39:44;13.60;86.50
43647;DHT22;56152;49.996;18.980;2022-09-03T21:44:54;13.50;86.80
43647;DHT22;56152;49.996;18.980;2022-09-03T21:50:05;13.40;87.10
43647;DHT22;56152;49.996;18.980;2022-09-03T21:55:21;13.40;87.20
43647;DHT22;56152;49.996;18.980;2022-09-03T22:00:26;13.40;87.30
43647;DHT22;56152;49.996;18.980;2022-09-03T22:05:41;13.40;87.40
43647;DHT22;56152;49.996;18.980;2022-09-03T22:10:54;13.40;87.40
43647;DHT22;56152;49.996;18.980;2022-09-03T22:16:05;13.30;87.50
43647;DHT22;56152;49.996;18.980;2022-09-03T22:21:22;13.30;87.80
43647;DHT22;56152;49.996;18.980;2022-09-03T22:26:37;13.20;87.90
43647;DHT22;56152;49.996;18.980;2022-09-03T22:31:52;13.20;88.10
43647;DHT22;56152;49.996;18.980;2022-09-03T22:37:00;13.10;88.20
43647;DHT22;56152;49.996;18.980;2022-09-03T22:42:39;13.10;88.30
43647;DHT22;56152;49.996;18.980;2022-09-03T22:47:50;13.10;88.50
43647;DHT22;56152;49.996;18.980;2022-09-03T22:53:09;13.00;88.60
43647;DHT22;56152;49.996;18.980;2022-09-03T22:58:16;13.00;89.00
43647;DHT22;56152;49.996;18.980;2022-09-03T23:03:23;12.90;89.30
43647;DHT22;56152;49.996;18.980;2022-09-03T23:08:28;12.90;89.60
43647;DHT22;56152;49.996;18.980;2022-09-03T23:13:37;12.80;89.50
43647;DHT22;56152;49.996;18.980;2022-09-03T23:18:47;12.80;89.70
43647;DHT22;56152;49.996;18.980;2022-09-03T23:23:55;12.80;89.80
43647;DHT22;56152;49.996;18.980;2022-09-03T23:29:08;12.70;90.00
43647;DHT22;56152;49.996;18.980;2022-09-03T23:34:15;12.70;90.00
43647;DHT22;56152;49.996;18.980;2022-09-03T23:39:27;12.70;90.00
43647;DHT22;56152;49.996;18.980;2022-09-03T23:44:44;12.60;90.20
43647;DHT22;56152;49.996;18.980;2022-09-03T23:49:59;12.50;90.20
43647;DHT22;56152;49.996;18.980;2022-09-03T23:55:18;12.50;90.20
